Time;durP1;ratioP1;P1;durP2;ratioP2;P2;SDS_P1;SDS_P2;PMS_P1;PMS_P2;Temp;Humidity;BMP_temperature;BMP_pressure;BME280_temperature;BME280_humidity;BME280_pressure;Samples;Min_cycle;Max_cycle;Signal;HPM_P1;HPM_P2
2021/08/15 00:02:04;;;;;;;18.70;6.38;;;;;;;17.13;87.91;100313.84;4978946;28;20058;-68
2021/08/15 00:04:31;;;;;;;14.90;6.07;;;;;;;17.15;87.54;100311.88;4978992;28;20057;-67
2021/08/15 00:06:58;;;;;;;14.40;6.55;;;;;;;17.08;87.77;100308.00;4978790;28;20055;-67
2021/08/15 00:09:25;;;;;;;19.50;6.03;;;;;;;17.16;86.95;100305.47;4978714;28;20050;-68
2021/08/15 00:11:51;;;;;;;15.85;6.90;;;;;;;17.19;86.58;100297.16;4978741;28;20051;-68
2021/08/15 00:14:18;;;;;;;15.13;6.38;;;;;;;17.16;86.85;100299.25;4978696;28;20069;-67
2021/08/15 00:16:45;;;;;;;21.95;5.78;;;;;;;17.21;86.30;100300.56;4978690;28;20051;-67
2021/08/15 00:19:12;;;;;;;14.82;6.88;;;;;;;17.16;86.67;100302.78;4978012;28;20165;-67
2021/08/15 00:21:38;;;;;;;19.58;6.88;;;;;;;17.15;86.17;100294.84;4970546;28;20090;-68
2021/08/15 00:24:06;;;;;;;15.45;6.05;;;;;;;17.13;86.81;100292.28;4960912;28;20058;-67
2021/08/15 00:26:33;;;;;;;16.73;7.15;;;;;;;17.16;86.09;100294.69;4978264;28;20106;-67
2021/08/15 00:29:00;;;;;;;15.02;6.22;;;;;;;17.09;86.80;100296.22;4977997;28;20495;-67
2021/08/15 00:31:28;;;;;;;16.45;6.97;;;;;;;17.08;86.97;100297.22;4978465;28;20057;-67
2021/08/15 00:33:55;;;;;;;17.50;6.40;;;;;;;16.95;87.18;100278.53;4978041;28;20106;-67
2021/08/15 00:36:22;;;;;;;17.00;6.85;;;;;;;17.04;87.13;100296.63;4978072;28;20050;-67
2021/08/15 00:38:49;;;;;;;19.10;6.40;;;;;;;17.02;87.18;100286.97;4977907;28;20047;-67
2021/08/15 00:41:16;;;;;;;15.93;6.97;;;;;;;17.03;86.85;100288.66;4977528;28;20051;-68
2021/08/15 00:43:42;;;;;;;16.77;7.05;;;;;;;17.02;86.53;100279.75;4977866;28;20055;-67
2021/08/15 00:46:11;;;;;;;13.43;6.45;;;;;;;17.05;85.81;100284.00;4976298;28;20055;-67
2021/08/15 00:48:39;;;;;;;18.55;6.25;;;;;;;17.00;87.18;100281.66;4978156;28;20047;-67
2021/08/15 00:51:06;;;;;;;15.13;6.22;;;;;;;16.98;86.53;100286.34;4977901;28;20109;-68
2021/08/15 00:53:38;;;;;;;18.40;6.50;;;;;;;16.95;87.05;100276.66;4977989;28;20332;-67
2021/08/15 00:56:06;;;;;;;13.95;5.80;;;;;;;16.94;87.00;100271.44;4977950;28;20105;-67
2021/08/15 00:58:33;;;;;;;12.27;5.57;;;;;;;16.94;86.28;100272.25;4977983;28;20051;-67
2021/08/15 01:01:01;;;;;;;14.05;6.70;;;;;;;16.95;87.88;100270.44;4977627;28;20097;-67
2021/08/15 01:03:29;;;;;;;19.55;6.63;;;;;;;16.95;86.73;100263.19;4977573;28;20054;-66
2021/08/15 01:05:58;;;;;;;15.13;5.78;;;;;;;16.93;87.04;100259.78;4977542;28;20059;-68
2021/08/15 01:08:27;;;;;;;15.65;5.80;;;;;;;16.83;87.73;100254.31;4977690;28;20051;-67
2021/08/15 01:10:54;;;;;;;14.75;5.68;;;;;;;16.81;87.78;100250.91;4977539;28;20439;-67
2021/08/15 01:13:22;;;;;;;15.77;5.80;;;;;;;16.69;87.97;100241.19;4977365;28;20102;-67
2021/08/15 01:15:49;;;;;;;14.00;5.80;;;;;;;16.74;88.12;100248.88;4976682;28;20106;-67
2021/08/15 01:18:27;;;;;;;13.50;6.05;;;;;;;16.69;88.29;100247.41;4977314;28;20078;-67
2021/08/15 01:20:59;;;;;;;16.25;5.57;;;;;;;16.57;88.95;100243.09;4977251;28;20051;-68
2021/08/15 01:23:27;;;;;;;14.90;5.10;;;;;;;16.56;88.99;100247.63;4957736;29;20062;-67
2021/08/15 01:25:54;;;;;;;14.38;5.93;;;;;;;16.55;88.80;100240.53;4975059;28;20051;-67
2021/08/15 01:28:22;;;;;;;11.52;5.85;;;;;;;16.57;88.39;100240.41;4977114;28;20059;-67
2021/08/15 01:30:50;;;;;;;12.13;5.78;;;;;;;16.62;87.60;100240.00;4977018;28;20058;-67
2021/08/15 01:33:23;;;;;;;16.40;5.55;;;;;;;16.65;88.00;100237.03;4977147;28;20108;-67
2021/08/15 01:35:52;;;;;;;13.90;6.25;;;;;;;16.61;87.52;100231.06;4977107;28;20046;-67
2021/08/15 01:38:19;;;;;;;13.38;5.50;;;;;;;16.69;87.67;100239.31;4976932;28;20054;-68
2021/08/15 01:40:46;;;;;;;17.17;6.82;;;;;;;16.74;87.12;100243.47;4977214;28;20055;-69
2021/08/15 01:43:12;;;;;;;16.80;6.00;;;;;;;16.82;85.86;100240.97;4976806;28;20356;-69
2021/08/15 01:45:39;;;;;;;17.70;6.25;;;;;;;16.81;86.08;100232.06;4977108;28;20074;-68
2021/08/15 01:48:06;;;;;;;11.77;6.28;;;;;;;16.81;86.30;100233.88;4960256;28;20058;-68
2021/08/15 01:50:33;;;;;;;16.77;5.80;;;;;;;16.73;86.80;100226.47;4976968;28;20078;-67
2021/08/15 01:53:00;;;;;;;16.42;6.03;;;;;;;16.75;86.34;100237.97;4976865;28;20395;-67
2021/08/15 01:55:27;;;;;;;19.83;6.25;;;;;;;16.74;86.78;100232.69;4976707;28;20060;-67
2021/08/15 01:57:53;;;;;;;14.35;6.05;;;;;;;16.78;86.60;100223.38;4976653;28;20109;-67
2021/08/15 02:00:20;;;;;;;16.23;5.30;;;;;;;16.76;85.67;100212.72;4976565;28;20046;-67
2021/08/15 02:02:47;;;;;;;14.98;6.05;;;;;;;16.82;85.61;100222.09;4944047;28;20054;-67
2021/08/15 02:05:18;;;;;;;14.75;5.90;;;;;;;16.83;86.05;100221.97;4976705;28;20432;-67
2021/08/15 02:07:46;;;;;;;17.00;5.93;;;;;;;16.80;86.44;100221.38;4960585;28;20407;-68
2021/08/15 02:10:14;;;;;;;12.85;6.15;;;;;;;16.85;85.29;100211.06;4976354;28;20275;-67
2021/08/15 02:12:40;;;;;;;14.32;6.20;;;;;;;16.86;84.99;100220.00;4976984;28;20050;-68
2021/08/15 02:15:08;;;;;;;12.07;5.53;;;;;;;16.84;85.36;100210.19;4960251;28;20058;-67
2021/08/15 02:17:34;;;;;;;18.83;6.50;;;;;;;16.95;84.39;100209.25;4976593;28;20054;-68
2021/08/15 02:20:01;;;;;;;15.48;5.65;;;;;;;16.94;84.36;100202.16;4976330;28;20421;-67
2021/08/15 02:22:28;;;;;;;14.27;6.00;;;;;;;16.97;83.87;100209.13;4976293;28;20062;-67
2021/08/15 02:24:54;;;;;;;10.65;5.40;;;;;;;16.97;84.23;100201.91;4975992;28;20121;-68
2021/08/15 02:27:21;;;;;;;15.57;5.78;;;;;;;16.95;84.34;100193.09;4976229;28;20059;-67
2021/08/15 02:29:48;;;;;;;16.55;5.93;;;;;;;16.97;83.79;100191.13;4976154;28;20375;-67
2021/08/15 02:32:14;;;;;;;13.50;5.30;;;;;;;17.03;83.58;100189.75;4976219;28;20117;-67
2021/08/15 02:34:41;;;;;;;15.45;5.10;;;;;;;16.96;83.95;100184.00;4976109;28;20344;-67
2021/08/15 02:37:08;;;;;;;15.95;5.40;;;;;;;16.95;84.26;100187.69;4959122;28;20061;-68
2021/08/15 02:39:34;;;;;;;12.18;5.57;;;;;;;16.97;83.54;100176.78;4976159;28;20121;-68
2021/08/15 02:42:01;;;;;;;12.77;5.65;;;;;;;16.94;84.11;100175.22;4976178;28;20683;-67
2021/08/15 02:44:28;;;;;;;13.93;5.28;;;;;;;16.99;83.61;100176.66;4976453;28;20106;-68
2021/08/15 02:46:54;;;;;;;14.32;5.88;;;;;;;17.00;83.44;100170.28;4959216;28;20105;-67
2021/08/15 02:49:21;;;;;;;11.05;5.07;;;;;;;17.00;83.61;100170.28;4959214;28;20054;-67
2021/08/15 02:51:47;;;;;;;15.77;4.97;;;;;;;17.02;83.34;100169.19;4976023;28;20078;-67
2021/08/15 02:54:14;;;;;;;11.60;5.20;;;;;;;16.94;83.13;100168.97;4958997;28;20059;-67
2021/08/15 02:56:41;;;;;;;17.90;5.57;;;;;;;16.96;83.63;100169.69;4975901;28;20054;-67
2021/08/15 02:59:11;;;;;;;12.45;5.18;;;;;;;16.92;83.39;100166.41;4975993;28;20098;-67
2021/08/15 03:01:38;;;;;;;13.90;5.05;;;;;;;16.92;83.46;100161.03;4976055;28;20428;-68
2021/08/15 03:04:05;;;;;;;11.38;4.97;;;;;;;16.92;83.46;100165.53;4976844;28;20138;-67
2021/08/15 03:06:31;;;;;;;11.27;5.40;;;;;;;16.88;83.50;100159.56;4979970;28;20102;-68
2021/08/15 03:08:58;;;;;;;12.00;5.45;;;;;;;16.84;83.44;100147.38;4962618;28;20051;-67
2021/08/15 03:11:24;;;;;;;13.60;5.13;;;;;;;16.85;83.48;100146.38;4980087;28;20101;-67
2021/08/15 03:13:51;;;;;;;11.10;4.82;;;;;;;16.78;83.89;100145.22;4979594;28;20062;-67
2021/08/15 03:16:18;;;;;;;9.00;4.82;;;;;;;16.79;84.01;100145.06;4978568;28;20061;-66
2021/08/15 03:18:44;;;;;;;12.02;5.10;;;;;;;16.75;83.97;100142.78;4979595;28;20055;-67
2021/08/15 03:21:11;;;;;;;8.57;4.72;;;;;;;16.77;84.00;100146.22;4978368;28;20081;-67
2021/08/15 03:23:38;;;;;;;13.25;4.90;;;;;;;16.78;84.00;100147.91;4979683;28;20172;-68
2021/08/15 03:26:06;;;;;;;12.55;4.90;;;;;;;16.76;84.01;100141.78;4979396;28;20514;-67
2021/08/15 03:28:32;;;;;;;10.32;4.22;;;;;;;16.73;84.78;100145.63;4979632;28;20082;-67
2021/08/15 03:30:59;;;;;;;14.60;4.78;;;;;;;16.70;84.56;100146.75;4979274;28;20380;-67
2021/08/15 03:33:26;;;;;;;11.55;4.65;;;;;;;16.67;84.36;100138.06;4979252;28;20047;-67
2021/08/15 03:35:52;;;;;;;18.27;5.28;;;;;;;16.66;84.52;100134.50;4962060;28;20415;-67
2021/08/15 03:38:19;;;;;;;9.55;4.53;;;;;;;16.68;84.28;100132.53;4979320;28;20082;-67
2021/08/15 03:40:45;;;;;;;11.55;4.70;;;;;;;16.64;84.24;100124.84;4979442;28;20134;-67
2021/08/15 03:43:12;;;;;;;12.20;4.72;;;;;;;16.70;83.66;100124.31;4979583;28;20059;-67
2021/08/15 03:45:39;;;;;;;12.02;4.97;;;;;;;16.67;83.85;100120.03;4979100;28;20494;-67
2021/08/15 03:48:06;;;;;;;8.95;4.05;;;;;;;16.67;83.58;100120.03;4979360;28;20138;-68
2021/08/15 03:50:32;;;;;;;8.93;4.45;;;;;;;16.67;83.66;100119.22;4979241;28;20105;-68
2021/08/15 03:52:59;;;;;;;11.27;4.45;;;;;;;16.59;84.32;100117.19;4979163;28;20113;-68
2021/08/15 03:55:26;;;;;;;8.30;4.10;;;;;;;16.57;83.78;100108.38;4977855;28;20431;-67
2021/08/15 03:57:52;;;;;;;15.70;4.72;;;;;;;16.66;83.69;100117.47;4978820;28;20365;-67
2021/08/15 04:00:20;;;;;;;9.48;4.40;;;;;;;16.64;83.61;100114.94;4978841;28;20090;-67
2021/08/15 04:02:46;;;;;;;11.73;4.07;;;;;;;16.63;84.33;100115.06;4978640;28;20109;-67
2021/08/15 04:05:13;;;;;;;10.23;4.00;;;;;;;16.55;83.92;100107.63;4962102;28;20121;-67
2021/08/15 04:07:40;;;;;;;9.65;4.15;;;;;;;16.52;84.44;100111.44;4978743;28;20059;-67
2021/08/15 04:10:08;;;;;;;10.50;3.72;;;;;;;16.60;83.68;100112.66;4978707;28;20047;-67
2021/08/15 04:12:36;;;;;;;10.48;4.10;;;;;;;16.50;83.81;100099.13;4978724;28;20110;-67
2021/08/15 04:15:03;;;;;;;8.20;4.30;;;;;;;16.56;83.64;100115.59;4961440;28;20109;-67
2021/08/15 04:17:30;;;;;;;6.28;3.65;;;;;;;16.53;84.35;100110.50;4977493;28;20399;-67
2021/08/15 04:19:56;;;;;;;7.18;3.67;;;;;;;16.57;83.71;100124.56;4978908;28;20051;-67
2021/08/15 04:22:23;;;;;;;8.00;3.95;;;;;;;16.57;83.73;100119.16;4978266;28;20055;-68
2021/08/15 04:24:50;;;;;;;7.68;3.50;;;;;;;16.55;84.13;100123.81;4978379;28;20058;-67
2021/08/15 04:27:17;;;;;;;11.90;4.30;;;;;;;16.46;84.27;100119.22;4978308;28;20055;-67
2021/08/15 04:29:43;;;;;;;9.05;3.92;;;;;;;16.50;84.48;100123.38;4978338;28;20047;-67
2021/08/15 04:32:10;;;;;;;8.98;3.80;;;;;;;16.51;84.48;100123.22;4978261;28;20058;-67
2021/08/15 04:34:37;;;;;;;9.23;3.80;;;;;;;16.50;84.67;100121.53;4978218;28;20050;-67
2021/08/15 04:37:04;;;;;;;6.55;3.75;;;;;;;16.52;84.54;100118.69;4961072;28;20326;-67
2021/08/15 04:39:31;;;;;;;10.90;3.33;;;;;;;16.47;84.50;100111.03;4978118;28;20372;-67
2021/08/15 04:41:57;;;;;;;12.30;3.83;;;;;;;16.57;83.98;100113.78;4978141;28;20055;-67
2021/08/15 04:44:24;;;;;;;7.78;3.33;;;;;;;16.55;84.04;100113.03;4960975;28;20074;-67
2021/08/15 04:46:50;;;;;;;9.18;3.70;;;;;;;16.57;84.35;100113.78;4976959;28;20058;-68
2021/08/15 04:49:17;;;;;;;11.35;3.67;;;;;;;16.54;84.86;100100.56;4977869;28;20139;-68
2021/08/15 04:51:44;;;;;;;7.72;3.33;;;;;;;16.54;84.60;100097.84;4960831;28;20047;-67
2021/08/15 04:54:10;;;;;;;12.43;3.50;;;;;;;16.58;84.10;100102.00;4976866;28;20396;-67
2021/08/15 04:56:37;;;;;;;6.93;3.70;;;;;;;16.60;84.50;100107.25;4977822;28;20059;-68
2021/08/15 04:59:04;;;;;;;11.10;3.10;;;;;;;16.59;84.67;100108.22;4977660;28;20400;-67
2021/08/15 05:01:30;;;;;;;6.60;2.75;;;;;;;16.59;84.65;100105.53;4955735;28;20050;-67
2021/08/15 05:03:57;;;;;;;6.93;3.13;;;;;;;16.66;84.55;100101.31;4977376;28;20051;-67
2021/08/15 05:06:24;;;;;;;10.68;3.30;;;;;;;16.63;85.47;100110.53;4965355;28;20436;-67
2021/08/15 05:08:51;;;;;;;7.72;3.13;;;;;;;16.65;85.16;100110.38;4976961;28;20432;-67
2021/08/15 05:11:17;;;;;;;9.82;3.13;;;;;;;16.68;85.27;100110.97;4977179;28;20512;-67
2021/08/15 05:13:45;;;;;;;11.10;2.83;;;;;;;16.68;84.97;100105.56;4977113;28;20050;-67
2021/08/15 05:16:11;;;;;;;11.70;2.92;;;;;;;16.68;85.53;100097.50;4977603;28;20078;-67
2021/08/15 05:18:38;;;;;;;6.95;3.53;;;;;;;16.72;85.17;100097.25;4977457;28;20121;-67
2021/08/15 05:21:04;;;;;;;8.07;3.08;;;;;;;16.75;85.32;100095.13;4955554;29;20433;-67
2021/08/15 05:23:31;;;;;;;8.73;3.08;;;;;;;16.78;84.72;100097.53;4957731;29;20432;-67
2021/08/15 05:25:58;;;;;;;7.43;3.00;;;;;;;16.78;85.06;100094.00;4958428;29;20103;-67
2021/08/15 05:28:24;;;;;;;8.60;3.40;;;;;;;16.76;85.18;100090.56;4968262;28;20086;-67
2021/08/15 05:30:51;;;;;;;11.88;3.22;;;;;;;16.80;84.80;100092.88;4977426;28;20051;-67
2021/08/15 05:33:18;;;;;;;7.82;3.22;;;;;;;16.85;85.15;100095.16;4977227;28;20051;-67
2021/08/15 05:35:44;;;;;;;5.10;2.70;;;;;;;16.91;84.38;100097.31;4977026;28;20101;-67
2021/08/15 05:38:11;;;;;;;5.75;2.92;;;;;;;16.91;85.25;100094.63;4977100;28;20134;-67
2021/08/15 05:40:38;;;;;;;5.22;2.88;;;;;;;16.89;85.58;100091.19;4977226;28;20050;-68
2021/08/15 05:43:04;;;;;;;7.10;3.33;;;;;;;16.92;84.76;100090.94;4977168;28;20103;-66
2021/08/15 05:45:31;;;;;;;8.10;2.70;;;;;;;17.07;83.58;100099.53;4976893;28;20055;-67
2021/08/15 05:47:58;;;;;;;5.85;3.15;;;;;;;17.12;83.18;100096.41;4976767;28;20070;-67
2021/08/15 05:50:24;;;;;;;7.95;3.03;;;;;;;17.17;83.44;100104.91;4944028;28;20070;-67
2021/08/15 05:52:51;;;;;;;5.05;2.85;;;;;;;17.17;84.18;100107.63;4976573;28;20666;-67
2021/08/15 05:55:19;;;;;;;5.55;2.85;;;;;;;17.19;84.81;100107.50;4976599;28;20428;-67
2021/08/15 05:57:45;;;;;;;5.28;2.75;;;;;;;17.27;83.43;100104.94;4976717;28;20062;-67
2021/08/15 06:00:13;;;;;;;6.95;2.92;;;;;;;17.31;83.88;100098.28;4976820;28;20348;-67
2021/08/15 06:02:41;;;;;;;7.55;3.00;;;;;;;17.34;83.81;100094.47;4976778;28;20109;-67
2021/08/15 06:05:09;;;;;;;5.97;2.80;;;;;;;17.41;83.79;100087.53;4975004;28;20046;-70
2021/08/15 06:07:36;;;;;;;5.82;2.60;;;;;;;17.48;83.87;100096.75;4972153;28;20047;-71
2021/08/15 06:10:05;;;;;;;10.77;3.13;;;;;;;17.55;83.68;100093.50;4973975;28;20090;-72
2021/08/15 06:12:32;;;;;;;4.93;2.97;;;;;;;17.61;82.82;100096.47;4976154;28;20074;-70
2021/08/15 06:14:58;;;;;;;6.15;3.00;;;;;;;17.66;83.73;100096.06;4975783;28;20130;-70
2021/08/15 06:17:25;;;;;;;7.70;2.88;;;;;;;17.69;83.66;100087.69;4976316;28;20055;-70
2021/08/15 06:19:53;;;;;;;7.75;2.70;;;;;;;17.71;84.10;100093.78;4970256;28;20336;-70
2021/08/15 06:22:20;;;;;;;8.48;2.80;;;;;;;17.77;83.63;100098.59;4958969;28;20389;-69
2021/08/15 06:24:47;;;;;;;6.57;3.00;;;;;;;17.83;83.49;100094.50;4942106;28;20093;-71
2021/08/15 06:27:13;;;;;;;5.18;2.47;;;;;;;17.92;84.22;100092.78;4958782;28;20114;-71
2021/08/15 06:29:40;;;;;;;6.80;2.65;;;;;;;17.98;82.18;100086.78;4971491;28;20055;-69
2021/08/15 06:32:07;;;;;;;9.73;3.03;;;;;;;18.11;82.43;100091.09;4955452;28;20055;-70
2021/08/15 06:34:33;;;;;;;7.63;2.75;;;;;;;18.12;83.02;100095.47;4940563;28;20047;-71
2021/08/15 06:37:00;;;;;;;9.70;3.22;;;;;;;18.17;82.26;100082.41;4944022;28;20055;-74
2021/08/15 06:39:27;;;;;;;4.10;2.60;;;;;;;18.20;81.68;100090.22;4957553;28;20063;-74
2021/08/15 06:41:54;;;;;;;8.43;3.15;;;;;;;18.29;81.11;100078.53;4959136;28;20118;-72
2021/08/15 06:44:20;;;;;;;7.72;2.65;;;;;;;18.23;81.75;100075.56;4957662;28;20047;-72
2021/08/15 06:46:47;;;;;;;6.32;2.65;;;;;;;18.25;81.87;100085.22;4957687;28;20106;-74
2021/08/15 06:49:14;;;;;;;11.50;3.63;;;;;;;18.23;82.85;100083.66;4968126;28;20090;-71
2021/08/15 06:51:41;;;;;;;7.05;3.35;;;;;;;18.22;82.16;100074.72;4975803;28;20046;-72
2021/08/15 06:54:07;;;;;;;7.18;3.33;;;;;;;18.24;81.55;100061.91;4975940;28;20190;-71
2021/08/15 06:56:34;;;;;;;6.57;3.20;;;;;;;18.38;81.97;100066.00;4960914;28;20054;-67
2021/08/15 06:59:01;;;;;;;8.18;3.05;;;;;;;18.52;80.76;100061.13;4971822;28;20071;-72
2021/08/15 07:01:27;;;;;;;8.13;3.42;;;;;;;18.78;78.57;100055.88;4958530;28;20047;-68
2021/08/15 07:03:54;;;;;;;7.85;3.03;;;;;;;18.96;78.23;100060.50;4974339;28;20059;-67
2021/08/15 07:06:21;;;;;;;9.57;2.80;;;;;;;18.98;78.93;100059.34;4966087;28;20455;-69
2021/08/15 07:08:47;;;;;;;5.88;2.83;;;;;;;18.98;79.46;100061.19;4938430;28;20158;-69
2021/08/15 07:11:14;;;;;;;8.13;2.95;;;;;;;19.08;78.69;100055.75;4975801;28;20051;-71
2021/08/15 07:13:40;;;;;;;5.00;2.58;;;;;;;18.99;79.96;100057.47;4986217;28;20050;-72
2021/08/15 07:16:07;;;;;;;8.85;3.20;;;;;;;19.06;79.04;100055.91;4972801;28;20321;-71
2021/08/15 07:18:34;;;;;;;7.05;3.03;;;;;;;19.13;79.22;100054.28;4967649;28;20051;-74
2021/08/15 07:21:02;;;;;;;6.70;2.60;;;;;;;19.12;79.59;100052.59;4987229;28;20341;-74
2021/08/15 07:23:29;;;;;;;7.03;3.20;;;;;;;19.20;79.51;100059.09;4972998;28;20348;-74
2021/08/15 07:25:55;;;;;;;10.13;2.85;;;;;;;19.22;79.44;100046.25;4975276;28;20399;-71
2021/08/15 07:28:22;;;;;;;7.60;3.05;;;;;;;19.26;78.51;100053.94;4975003;28;20051;-75
2021/08/15 07:30:49;;;;;;;7.68;3.00;;;;;;;19.23;78.98;100051.50;4972621;28;20039;-73
2021/08/15 07:33:16;;;;;;;11.45;3.30;;;;;;;19.29;79.22;100043.78;4969577;28;20042;-72
2021/08/15 07:35:43;;;;;;;6.78;3.00;;;;;;;19.37;80.23;100050.16;4973247;28;20101;-72
2021/08/15 07:38:10;;;;;;;11.05;3.10;;;;;;;19.45;79.59;100046.66;4968754;28;20059;-72
2021/08/15 07:40:37;;;;;;;6.95;3.90;;;;;;;19.48;79.36;100035.53;4980292;28;20078;-77
2021/08/15 07:43:04;;;;;;;5.63;2.63;;;;;;;19.59;79.17;100039.84;4968239;28;20055;-75
2021/08/15 07:45:32;;;;;;;7.93;3.08;;;;;;;19.80;78.46;100055.78;4957905;28;20351;-75
2021/08/15 07:47:59;;;;;;;10.05;2.95;;;;;;;19.86;78.07;100048.88;4959669;28;20645;-73
2021/08/15 07:50:28;;;;;;;7.55;2.78;;;;;;;20.05;77.56;100047.00;4970468;28;20039;-68
2021/08/15 07:52:55;;;;;;;6.30;2.83;;;;;;;20.20;75.76;100036.41;4973410;28;20074;-68
2021/08/15 07:55:23;;;;;;;8.45;3.00;;;;;;;20.27;75.35;100028.53;4985670;28;20101;-69
2021/08/15 07:57:49;;;;;;;7.55;2.63;;;;;;;20.49;75.17;100040.66;4979659;28;20059;-68
2021/08/15 08:00:16;;;;;;;6.53;2.60;;;;;;;20.64;74.52;100043.59;4968540;28;20047;-68
2021/08/15 08:02:43;;;;;;;6.95;3.20;;;;;;;20.63;72.94;100059.03;4965352;28;20738;-68
2021/08/15 08:05:09;;;;;;;10.45;2.85;;;;;;;20.60;73.63;100053.91;4971696;28;20447;-68
2021/08/15 08:07:36;;;;;;;6.80;2.78;;;;;;;20.58;74.18;100058.66;4962523;28;20102;-67
2021/08/15 08:10:03;;;;;;;12.07;3.10;;;;;;;20.62;74.29;100048.34;4973590;28;20047;-69
2021/08/15 08:12:31;;;;;;;7.28;3.40;;;;;;;20.67;74.51;100056.84;4973436;28;20047;-70
2021/08/15 08:14:58;;;;;;;8.43;2.60;;;;;;;20.88;73.59;100050.19;4970313;28;20073;-69
2021/08/15 08:17:25;;;;;;;9.50;3.05;;;;;;;21.08;73.17;100049.91;4976084;28;20435;-70
2021/08/15 08:19:52;;;;;;;4.22;2.45;;;;;;;21.13;72.64;100055.69;4984914;28;20507;-70
2021/08/15 08:22:19;;;;;;;6.82;3.05;;;;;;;21.12;72.11;100043.13;4977142;28;20042;-70
2021/08/15 08:24:45;;;;;;;8.13;3.05;;;;;;;21.22;72.29;100049.25;4987161;28;20059;-68
2021/08/15 08:27:12;;;;;;;16.05;2.88;;;;;;;21.37;71.42;100051.31;4974850;28;20054;-68
2021/08/15 08:29:38;;;;;;;7.90;2.75;;;;;;;21.43;71.50;100046.09;4974036;28;20396;-69
2021/08/15 08:32:05;;;;;;;6.82;2.90;;;;;;;21.63;71.77;100048.44;4974317;28;20336;-70
2021/08/15 08:34:32;;;;;;;5.50;2.80;;;;;;;21.76;72.63;100050.72;4972704;28;20043;-74
2021/08/15 08:36:59;;;;;;;11.20;3.08;;;;;;;21.79;72.54;100044.09;4962453;28;20106;-68
2021/08/15 08:39:29;;;;;;;8.52;3.30;;;;;;;21.78;70.67;100035.06;4967443;28;20051;-70
2021/08/15 08:41:59;;;;;;;10.65;3.63;;;;;;;21.76;72.54;100061.56;4963584;28;20051;-69
2021/08/15 08:44:29;;;;;;;10.05;3.17;;;;;;;21.79;72.47;100053.06;4959444;28;20126;-69
2021/08/15 08:47:04;;;;;;;9.95;3.17;;;;;;;21.83;73.33;100051.72;4964814;28;20051;-72
2021/08/15 08:49:37;;;;;;;8.25;2.60;;;;;;;21.90;73.39;100051.03;4965648;28;20051;-67
2021/08/15 08:52:05;;;;;;;4.82;2.63;;;;;;;21.96;72.97;100056.63;4985136;28;20094;-68
2021/08/15 08:54:32;;;;;;;12.43;3.35;;;;;;;21.99;73.67;100058.16;4966351;28;20044;-70
2021/08/15 08:56:59;;;;;;;7.40;3.10;;;;;;;21.99;72.58;100055.44;4961766;28;20050;-67
2021/08/15 08:59:26;;;;;;;9.43;3.78;;;;;;;21.91;70.12;100058.16;4961157;28;20089;-69
2021/08/15 09:01:53;;;;;;;5.50;2.75;;;;;;;21.82;69.90;100047.31;4975775;28;20042;-68
2021/08/15 09:04:20;;;;;;;6.68;2.88;;;;;;;21.69;67.47;100049.69;4977079;28;20063;-68
2021/08/15 09:06:47;;;;;;;12.88;2.97;;;;;;;21.56;67.76;100047.44;4975971;28;20082;-68
2021/08/15 09:09:18;;;;;;;8.57;2.83;;;;;;;21.52;67.90;100044.19;4977126;28;20101;-68
2021/08/15 09:11:50;;;;;;;11.70;3.20;;;;;;;21.68;67.17;100039.81;4969612;28;20047;-67
2021/08/15 09:14:23;;;;;;;6.38;2.70;;;;;;;21.84;66.91;100037.13;4976625;28;20050;-69
2021/08/15 09:16:55;;;;;;;14.90;3.15;;;;;;;21.96;68.09;100044.94;4966015;28;20117;-66
2021/08/15 09:19:23;;;;;;;9.15;3.72;;;;;;;21.99;69.96;100036.41;4970328;28;20051;-69
2021/08/15 09:21:50;;;;;;;8.63;3.63;;;;;;;22.05;70.00;100043.88;4976398;28;20506;-68
2021/08/15 09:24:17;;;;;;;8.57;3.72;;;;;;;22.28;68.82;100042.31;4976616;28;20058;-68
2021/08/15 09:27:07;;;;;;;11.65;3.80;;;;;;;22.47;67.54;100035.63;4975526;28;20138;-71
2021/08/15 09:29:34;;;;;;;10.80;3.50;;;;;;;22.61;68.48;100032.22;4977020;28;20059;-72
2021/08/15 09:32:02;;;;;;;11.43;4.00;;;;;;;22.67;67.01;100029.81;4967308;28;20098;-69
2021/08/15 09:34:29;;;;;;;6.80;3.50;;;;;;;22.58;66.25;100034.44;4963379;28;20423;-70
2021/08/15 09:36:56;;;;;;;16.40;4.13;;;;;;;22.51;66.47;100031.59;4970131;28;20073;-73
2021/08/15 09:39:31;;;;;;;6.03;3.55;;;;;;;22.47;66.49;100028.34;4965287;28;20105;-74
2021/08/15 09:41:58;;;;;;;12.68;4.07;;;;;;;22.38;66.81;100030.22;4970191;28;20077;-69
2021/08/15 09:44:30;;;;;;;9.77;3.72;;;;;;;22.56;68.08;100031.91;4969224;28;20126;-68
2021/08/15 09:47:06;;;;;;;10.45;3.42;;;;;;;22.64;67.93;100031.88;4973717;28;20110;-69
2021/08/15 09:49:36;;;;;;;7.57;3.88;;;;;;;22.84;67.39;100015.13;4963815;28;20055;-67
2021/08/15 09:52:05;;;;;;;9.38;4.05;;;;;;;23.08;65.79;100021.44;4970117;28;20058;-68
2021/08/15 09:54:33;;;;;;;9.95;3.67;;;;;;;23.13;65.68;100016.31;4968187;28;20047;-69
2021/08/15 09:57:00;;;;;;;9.02;3.45;;;;;;;23.13;62.92;100016.31;4965529;28;20054;-69
2021/08/15 09:59:35;;;;;;;9.63;2.90;;;;;;;23.06;60.56;100023.50;4964913;28;20102;-72
2021/08/15 10:02:04;;;;;;;8.98;3.22;;;;;;;23.01;62.45;100012.28;4968621;28;20050;-73
2021/08/15 10:04:32;;;;;;;7.97;3.33;;;;;;;23.18;62.98;100016.63;4972753;28;20313;-72
2021/08/15 10:06:59;;;;;;;8.98;3.10;;;;;;;23.50;63.34;100021.19;4971340;28;20055;-67
2021/08/15 10:09:27;;;;;;;6.20;3.00;;;;;;;23.61;61.88;100026.22;4975856;28;20053;-73
2021/08/15 10:11:54;;;;;;;8.52;3.38;;;;;;;23.74;60.30;100015.53;4974549;28;20456;-74
2021/08/15 10:14:21;;;;;;;7.50;3.13;;;;;;;23.71;59.95;100015.88;4974730;28;20042;-68
2021/08/15 10:17:01;;;;;;;5.55;2.60;;;;;;;23.73;60.38;100007.53;4974659;28;20050;-73
2021/08/15 10:19:36;;;;;;;;;;;;;;;23.85;61.01;100008.78;4974923;28;20138;-68
2021/08/15 10:22:04;;;;;;;10.50;3.40;;;;;;;24.19;60.24;100003.03;4974038;28;20283;-66
2021/08/15 10:24:55;;;;;;;8.75;2.95;;;;;;;24.51;58.81;99992.78;4958949;28;20129;-66
2021/08/15 10:27:40;;;;;;;7.65;2.85;;;;;;;24.65;58.28;100000.09;4978363;28;20506;-69
2021/08/15 10:30:27;;;;;;;5.45;3.00;;;;;;;24.78;56.89;99988.50;4975759;28;20054;-70
2021/08/15 10:32:57;;;;;;;10.13;3.00;;;;;;;24.85;57.15;99985.88;4963419;28;20051;-68
2021/08/15 10:35:27;;;;;;;8.75;3.22;;;;;;;24.83;55.49;99984.38;4963490;28;20062;-67
2021/08/15 10:38:04;;;;;;;8.10;2.72;;;;;;;24.59;55.38;99991.81;4975687;28;20097;-74
2021/08/15 10:40:40;;;;;;;13.10;3.33;;;;;;;24.83;56.06;99979.75;4975881;28;20109;-72
2021/08/15 10:43:36;;;;;;;7.53;3.25;;;;;;;25.22;55.59;99978.50;4975864;28;20054;-70
2021/08/15 10:46:18;;;;;;;7.00;2.80;;;;;;;25.33;54.70;99957.19;4961489;28;20161;-73
2021/08/15 10:48:58;;;;;;;5.70;3.00;;;;;;;25.73;55.54;99978.53;4963937;28;20415;-71
2021/08/15 10:51:47;;;;;;;11.63;3.30;;;;;;;25.83;55.25;99978.19;4963535;28;20051;-71
2021/08/15 10:54:26;;;;;;;7.13;3.20;;;;;;;25.72;53.56;99971.41;4958223;28;20078;-70
2021/08/15 10:56:59;;;;;;;8.20;3.10;;;;;;;25.73;52.66;99978.53;4967043;28;20047;-72
2021/08/15 10:59:38;;;;;;;6.47;2.75;;;;;;;25.97;53.74;99973.69;4972479;28;20081;-70
2021/08/15 11:02:18;;;;;;;7.55;2.85;;;;;;;25.76;53.28;99967.19;4976065;28;20121;-68
2021/08/15 11:04:59;;;;;;;5.28;3.20;;;;;;;26.02;51.58;99971.19;4974444;28;20058;-68
2021/08/15 11:07:37;;;;;;;8.07;3.40;;;;;;;26.17;51.69;99958.25;4975078;28;20073;-68
2021/08/15 11:10:09;;;;;;;9.82;2.83;;;;;;;26.41;51.44;99964.28;4963478;28;20433;-72
2021/08/15 11:13:19;;;;;;;7.35;3.33;;;;;;;26.49;51.85;99966.00;4956235;28;20087;-68
2021/08/15 11:15:46;;;;;;;10.65;3.70;;;;;;;26.33;51.93;99955.38;4971480;28;20050;-68
2021/08/15 11:18:14;;;;;;;10.40;3.30;;;;;;;25.95;50.85;99953.88;4975717;28;20086;-68
2021/08/15 11:20:49;;;;;;;6.55;2.70;;;;;;;25.73;51.92;99954.81;4974739;28;20058;-68
2021/08/15 11:23:19;;;;;;;7.50;3.03;;;;;;;25.68;52.01;99950.97;4975629;28;20055;-67
2021/08/15 11:25:46;;;;;;;7.28;3.25;;;;;;;25.33;52.67;99943.53;4977394;28;20113;-67
2021/08/15 11:28:15;;;;;;;5.57;2.72;;;;;;;25.41;53.23;99942.50;4979607;28;20055;-67